createdAt,value
2023-01-31T00:03:29.738Z,5.47
2023-01-31T00:08:52.847Z,5.60
2023-01-31T00:14:20.266Z,5.30
2023-01-31T00:19:42.263Z,5.40
2023-01-31T00:25:04.927Z,5.82
2023-01-31T00:30:26.909Z,5.45
2023-01-31T00:35:48.828Z,5.30
2023-01-31T00:41:11.146Z,5.20
2023-01-31T00:46:33.477Z,5.07
2023-01-31T00:51:55.357Z,5.00
2023-01-31T00:57:17.278Z,5.13
2023-01-31T01:02:39.147Z,5.20
2023-01-31T01:08:00.995Z,4.97
2023-01-31T01:13:22.867Z,5.05
2023-01-31T01:18:45.231Z,5.05
2023-01-31T01:24:14.223Z,4.80
2023-01-31T01:29:36.419Z,4.20
2023-01-31T01:34:58.299Z,4.60
2023-01-31T01:40:20.342Z,5.15
2023-01-31T01:45:42.310Z,4.45
2023-01-31T01:51:06.170Z,4.38
2023-01-31T01:56:34.235Z,4.10
2023-01-31T02:01:57.002Z,4.43
2023-01-31T02:07:19.459Z,4.82
2023-01-31T02:12:41.427Z,4.68
2023-01-31T02:18:03.498Z,4.28
2023-01-31T02:23:48.485Z,4.85
2023-01-31T02:29:16.333Z,4.45
2023-01-31T02:34:59.587Z,4.28
2023-01-31T02:40:43.307Z,4.45
2023-01-31T02:46:11.428Z,3.88
2023-01-31T02:51:44.143Z,4.00
2023-01-31T02:57:06.082Z,4.10
2023-01-31T03:02:28.801Z,3.78
2023-01-31T03:07:55.151Z,3.90
2023-01-31T03:13:16.941Z,3.38
2023-01-31T03:18:44.392Z,3.80
2023-01-31T03:24:07.971Z,4.00
2023-01-31T03:29:36.276Z,3.10
2023-01-31T03:34:58.528Z,3.33
2023-01-31T03:40:31.900Z,3.65
2023-01-31T03:46:07.402Z,3.75
2023-01-31T03:51:33.752Z,3.53
2023-01-31T03:57:00.201Z,2.70
2023-01-31T04:07:47.255Z,3.00
2023-01-31T04:13:09.522Z,3.55
2023-01-31T04:18:31.405Z,3.05
2023-01-31T04:23:53.287Z,3.33
2023-01-31T04:29:15.285Z,3.58
2023-01-31T04:34:37.162Z,3.38
2023-01-31T04:39:59.142Z,3.80
2023-01-31T04:45:21.444Z,3.17
2023-01-31T04:50:43.649Z,2.78
2023-01-31T04:56:05.774Z,3.30
2023-01-31T05:01:27.780Z,4.03
2023-01-31T05:06:49.645Z,3.83
2023-01-31T05:12:11.588Z,4.53
2023-01-31T05:17:34.201Z,3.42
2023-01-31T05:22:56.054Z,3.45
2023-01-31T05:28:18.086Z,3.20
2023-01-31T05:33:40.226Z,3.45
2023-01-31T05:39:02.132Z,3.45
2023-01-31T05:44:24.225Z,3.15
2023-01-31T05:49:46.060Z,2.72
2023-01-31T05:55:08.423Z,2.40
2023-01-31T06:00:30.933Z,2.80
2023-01-31T06:05:53.481Z,3.58
2023-01-31T06:11:15.610Z,2.75
2023-01-31T06:16:37.477Z,2.45
2023-01-31T06:21:59.940Z,2.97
2023-01-31T06:27:21.779Z,3.25
2023-01-31T06:32:43.633Z,3.55
2023-01-31T06:38:06.880Z,3.05
2023-01-31T06:43:28.754Z,3.13
2023-01-31T06:48:50.604Z,2.72
2023-01-31T06:54:12.443Z,3.83
2023-01-31T06:59:34.365Z,3.13
2023-01-31T07:04:56.636Z,3.00
2023-01-31T07:10:18.544Z,2.67
2023-01-31T07:15:40.467Z,2.60
2023-01-31T07:21:02.364Z,3.47
2023-01-31T07:26:24.243Z,2.78
2023-01-31T07:31:46.179Z,2.97
2023-01-31T07:37:08.060Z,2.97
2023-01-31T07:42:29.949Z,2.92
2023-01-31T07:47:52.636Z,2.83
2023-01-31T07:53:14.530Z,3.10
2023-01-31T07:58:37.376Z,2.50
2023-01-31T08:04:02.834Z,3.38
2023-01-31T08:09:33.135Z,3.33
2023-01-31T08:14:54.954Z,2.70
2023-01-31T08:20:17.196Z,2.90
2023-01-31T08:25:39.047Z,3.38
2023-01-31T08:31:08.599Z,3.08
2023-01-31T08:36:31.526Z,3.42
2023-01-31T08:41:53.518Z,3.20
2023-01-31T08:47:15.384Z,2.45
2023-01-31T08:52:37.178Z,2.90
2023-01-31T08:58:00.582Z,2.15
2023-01-31T09:03:22.473Z,2.80
2023-01-31T09:08:44.535Z,3.00
2023-01-31T09:14:06.757Z,2.13
2023-01-31T09:19:28.630Z,2.38
2023-01-31T09:24:50.476Z,2.30
2023-01-31T09:30:12.628Z,3.15
2023-01-31T09:35:34.492Z,2.42
2023-01-31T09:40:58.891Z,2.42
2023-01-31T09:46:25.940Z,2.58
2023-01-31T09:51:53.723Z,2.65
2023-01-31T09:57:27.554Z,2.75
2023-01-31T10:03:24.621Z,3.08
2023-01-31T10:09:03.011Z,2.97
2023-01-31T10:14:41.866Z,3.22
2023-01-31T10:20:32.776Z,2.70
2023-01-31T10:25:59.813Z,2.25
2023-01-31T10:31:32.778Z,2.45
2023-01-31T10:37:05.324Z,2.78
2023-01-31T10:42:36.823Z,3.05
2023-01-31T10:48:11.098Z,3.92
2023-01-31T10:53:54.255Z,2.72
2023-01-31T10:59:31.139Z,2.50
2023-01-31T11:04:56.238Z,2.55
2023-01-31T11:10:30.109Z,3.10
2023-01-31T11:15:54.367Z,2.90
2023-01-31T11:21:26.050Z,2.67
2023-01-31T11:27:09.261Z,2.60
2023-01-31T11:32:35.556Z,2.83
2023-01-31T11:38:20.214Z,2.38
2023-01-31T11:43:42.559Z,2.75
2023-01-31T11:49:12.434Z,2.22
2023-01-31T11:54:34.930Z,2.42
2023-01-31T11:59:59.071Z,3.17
2023-01-31T12:05:36.563Z,3.10
2023-01-31T12:10:59.221Z,2.75
2023-01-31T12:16:26.531Z,2.75
2023-01-31T12:22:05.708Z,2.22
2023-01-31T12:27:33.608Z,2.72
2023-01-31T12:33:27.673Z,2.63
2023-01-31T12:38:58.425Z,2.58
2023-01-31T12:44:43.739Z,2.60
2023-01-31T12:50:29.929Z,2.90
2023-01-31T12:56:00.940Z,2.50
2023-01-31T13:01:42.606Z,2.47
2023-01-31T13:07:10.491Z,2.90
2023-01-31T13:12:35.142Z,2.28
2023-01-31T13:18:03.161Z,3.08
2023-01-31T13:23:31.171Z,3.08
2023-01-31T13:29:01.787Z,2.45
2023-01-31T13:34:39.744Z,2.72
2023-01-31T13:40:18.776Z,2.67
2023-01-31T13:45:48.252Z,3.00
2023-01-31T13:51:22.768Z,2.47
2023-01-31T13:56:50.784Z,2.17
2023-01-31T14:02:20.119Z,2.83
2023-01-31T14:07:41.946Z,3.40
2023-01-31T14:13:24.713Z,2.58
2023-01-31T14:18:46.667Z,3.10
2023-01-31T14:24:20.016Z,3.28
2023-01-31T14:29:43.791Z,3.22
2023-01-31T14:35:14.461Z,3.08
2023-01-31T14:40:54.304Z,3.33
2023-01-31T14:46:55.150Z,2.97
2023-01-31T14:52:19.824Z,3.13
2023-01-31T14:57:45.245Z,3.70
2023-01-31T15:03:28.172Z,3.03
2023-01-31T15:08:59.129Z,4.57
2023-01-31T15:14:48.008Z,3.63
2023-01-31T15:20:18.112Z,3.80
2023-01-31T15:25:44.706Z,3.38
2023-01-31T15:31:36.551Z,4.28
2023-01-31T15:37:13.784Z,4.25
2023-01-31T15:42:35.621Z,3.72
2023-01-31T15:48:11.353Z,3.67
2023-01-31T15:53:33.380Z,4.13
2023-01-31T15:58:57.544Z,4.20
2023-01-31T16:04:19.447Z,4.38
2023-01-31T16:09:41.443Z,5.07
2023-01-31T16:15:07.340Z,4.60
2023-01-31T16:20:39.852Z,5.05
2023-01-31T16:26:08.728Z,5.07
2023-01-31T16:31:34.692Z,5.05
2023-01-31T16:37:01.385Z,5.60
2023-01-31T16:42:24.823Z,5.72
2023-01-31T16:47:48.808Z,5.55
2023-01-31T16:53:30.156Z,5.32
2023-01-31T16:58:56.354Z,6.13
2023-01-31T17:04:21.189Z,5.30
2023-01-31T17:09:43.172Z,7.15
2023-01-31T17:15:14.771Z,6.03
2023-01-31T17:20:37.161Z,6.43
2023-01-31T17:25:59.013Z,6.68
2023-01-31T17:31:24.522Z,6.10
2023-01-31T17:36:46.376Z,4.90
2023-01-31T17:42:17.821Z,5.28
2023-01-31T17:47:39.732Z,5.38
2023-01-31T17:53:01.640Z,5.95
2023-01-31T17:58:24.574Z,7.05
2023-01-31T18:03:46.521Z,6.00
2023-01-31T18:09:08.493Z,7.82
2023-01-31T18:14:30.456Z,7.88
2023-01-31T18:19:52.306Z,6.85
2023-01-31T18:25:14.288Z,6.68
2023-01-31T18:30:36.177Z,7.47
2023-01-31T18:35:59.495Z,8.00
2023-01-31T18:41:21.516Z,7.82
2023-01-31T18:46:43.447Z,8.65
2023-01-31T18:52:06.181Z,8.52
2023-01-31T18:57:28.095Z,8.40
2023-01-31T19:02:54.563Z,9.40
2023-01-31T19:13:38.433Z,7.88
2023-01-31T19:19:00.336Z,8.52
2023-01-31T19:24:22.266Z,8.73
2023-01-31T19:29:44.185Z,8.10
2023-01-31T19:35:06.601Z,8.88
2023-01-31T19:40:28.516Z,8.52
2023-01-31T19:45:50.447Z,9.75
2023-01-31T19:51:18.266Z,8.18
2023-01-31T19:56:40.278Z,9.15
2023-01-31T20:02:02.129Z,8.75
2023-01-31T20:07:24.075Z,8.02
2023-01-31T20:12:46.236Z,7.90
2023-01-31T20:18:08.112Z,7.28
2023-01-31T20:23:30.237Z,6.57
2023-01-31T20:28:52.218Z,7.15
2023-01-31T20:34:14.103Z,6.68
2023-01-31T20:39:36.002Z,7.28
2023-01-31T20:44:57.936Z,8.20
2023-01-31T20:50:20.054Z,7.50
2023-01-31T20:55:42.261Z,7.35
2023-01-31T21:01:06.504Z,7.60
2023-01-31T21:06:28.696Z,6.82
2023-01-31T21:11:50.691Z,6.60
2023-01-31T21:17:12.566Z,6.72
2023-01-31T21:22:34.812Z,6.20
2023-01-31T21:27:56.717Z,6.18
2023-01-31T21:33:18.598Z,6.07
2023-01-31T21:38:41.449Z,6.28
2023-01-31T21:44:04.145Z,5.50
2023-01-31T21:49:26.310Z,7.00
2023-01-31T21:54:48.144Z,6.97
2023-01-31T22:00:11.574Z,6.47
2023-01-31T22:05:33.428Z,6.10
2023-01-31T22:11:21.542Z,5.70
2023-01-31T22:16:44.244Z,5.07
2023-01-31T22:22:06.136Z,5.70
2023-01-31T22:27:27.986Z,4.85
2023-01-31T22:32:49.840Z,4.60
2023-01-31T22:38:11.711Z,4.60
2023-01-31T22:43:36.945Z,4.88
2023-01-31T22:48:58.847Z,5.00
2023-01-31T22:54:20.707Z,4.70
2023-01-31T22:59:42.601Z,5.47
2023-01-31T23:05:04.730Z,4.93
2023-01-31T23:10:27.354Z,6.10
2023-01-31T23:15:49.254Z,5.90
2023-01-31T23:21:18.259Z,5.90
2023-01-31T23:26:40.403Z,6.32
2023-01-31T23:32:02.346Z,6.75
2023-01-31T23:37:24.434Z,7.32
2023-01-31T23:42:46.448Z,6.78
2023-01-31T23:48:08.374Z,5.68
2023-01-31T23:53:30.319Z,5.22
2023-01-31T23:58:53.531Z,4.57
